Time;durP1;ratioP1;P1;durP2;ratioP2;P2;SDS_P1;SDS_P2;PMS_P1;PMS_P2;Temp;Humidity;BMP_temperature;BMP_pressure;BME280_temperature;BME280_humidity;BME280_pressure;Samples;Min_cycle;Max_cycle;Signal;HPM_P1;HPM_P2
2024/03/13 00:00:10;;;;;;;57.70;24.80;;;11.30;95.90;;;;;;5064517;28;20050;-81
2024/03/13 00:02:41;;;;;;;51.67;24.75;;;11.20;95.70;;;;;;5060020;28;20384;-80
2024/03/13 00:05:10;;;;;;;56.38;25.38;;;11.20;95.70;;;;;;5049725;28;20112;-81
2024/03/13 00:07:37;;;;;;;59.00;25.48;;;11.20;95.70;;;;;;5061749;28;20183;-80
2024/03/13 00:10:04;;;;;;;56.70;26.50;;;11.20;95.70;;;;;;5060949;28;20416;-80
2024/03/13 00:12:30;;;;;;;58.35;26.60;;;11.20;95.80;;;;;;5062475;28;20033;-81
2024/03/13 00:14:56;;;;;;;55.35;24.88;;;11.20;95.80;;;;;;5053612;28;20036;-80
2024/03/13 00:17:22;;;;;;;58.00;26.27;;;11.20;95.70;;;;;;5063412;28;20502;-80
2024/03/13 00:19:49;;;;;;;53.42;25.08;;;11.10;95.70;;;;;;5056012;28;20039;-80
2024/03/13 00:22:18;;;;;;;53.53;25.65;;;11.10;95.80;;;;;;5061336;28;20491;-81
2024/03/13 00:24:48;;;;;;;52.67;25.38;;;11.10;95.90;;;;;;5059733;28;20115;-80
2024/03/13 00:27:17;;;;;;;59.22;27.02;;;11.10;95.80;;;;;;5055043;28;20120;-80
2024/03/13 00:29:49;;;;;;;61.85;27.75;;;11.10;96.00;;;;;;5067030;28;20070;-81
2024/03/13 00:32:17;;;;;;;63.47;26.00;;;11.00;95.90;;;;;;5064377;28;20517;-80
2024/03/13 00:34:45;;;;;;;57.97;26.25;;;11.10;96.00;;;;;;5057254;28;20035;-80
2024/03/13 00:37:18;;;;;;;62.03;27.95;;;11.00;96.00;;;;;;5063067;28;20036;-81
2024/03/13 00:39:43;;;;;;;58.72;26.95;;;11.00;96.00;;;;;;5062594;28;20032;-80
2024/03/13 00:42:11;;;;;;;57.28;26.63;;;11.10;95.90;;;;;;5060175;28;20044;-80
2024/03/13 00:44:40;;;;;;;57.95;26.52;;;11.00;95.80;;;;;;5048522;28;20110;-80
2024/03/13 00:47:08;;;;;;;64.18;27.40;;;11.00;95.80;;;;;;5061409;28;20400;-81
2024/03/13 00:49:38;;;;;;;64.53;27.40;;;11.00;95.70;;;;;;5061187;28;20041;-80
2024/03/13 00:52:04;;;;;;;61.63;26.23;;;11.00;95.60;;;;;;5055370;28;20479;-80
2024/03/13 00:54:30;;;;;;;52.92;25.77;;;11.00;95.60;;;;;;5052265;28;20043;-81
2024/03/13 00:56:57;;;;;;;67.18;28.38;;;11.00;95.70;;;;;;5059292;28;20037;-80
2024/03/13 00:59:29;;;;;;;52.58;26.60;;;11.00;95.60;;;;;;5060995;28;20032;-80
2024/03/13 01:01:55;;;;;;;60.00;26.80;;;11.00;95.80;;;;;;5058410;28;20028;-81
2024/03/13 01:04:24;;;;;;;60.00;26.30;;;10.90;95.90;;;;;;5058122;28;20562;-80
2024/03/13 01:06:51;;;;;;;57.65;27.63;;;10.90;96.00;;;;;;5061512;28;20476;-80
2024/03/13 01:09:19;;;;;;;60.75;29.52;;;10.80;96.00;;;;;;5067387;28;20516;-80
2024/03/13 01:11:48;;;;;;;63.05;26.52;;;10.90;96.10;;;;;;5057431;28;20036;-82
2024/03/13 01:14:19;;;;;;;61.88;27.83;;;10.80;96.00;;;;;;5066560;28;20033;-80
2024/03/13 01:16:46;;;;;;;64.57;29.30;;;10.90;96.00;;;;;;5059921;28;20049;-80
2024/03/13 01:19:13;;;;;;;68.20;30.27;;;10.90;96.00;;;;;;5060545;28;20028;-80
2024/03/13 01:21:38;;;;;;;65.10;27.60;;;10.90;96.00;;;;;;5048321;28;20439;-80
2024/03/13 01:24:04;;;;;;;64.28;28.48;;;10.90;96.00;;;;;;5049718;28;20461;-81
2024/03/13 01:26:34;;;;;;;63.35;27.80;;;10.90;96.00;;;;;;5049020;28;20099;-81
2024/03/13 01:29:00;;;;;;;64.53;27.23;;;10.90;95.90;;;;;;5049614;28;20400;-80
2024/03/13 01:31:26;;;;;;;62.20;28.23;;;10.90;95.80;;;;;;5066083;28;20086;-82
2024/03/13 01:33:52;;;;;;;62.05;28.88;;;10.90;95.80;;;;;;5054593;28;20819;-81
2024/03/13 01:37:55;;;;;;;67.18;29.27;;;10.90;95.80;;;;;;5049210;28;20114;-81
2024/03/13 01:39:06;;;;;;;63.28;27.10;;;10.90;95.70;;;;;;5053162;28;20045;-80
2024/03/13 02:03:16;;;;;;;68.05;28.38;;;10.90;95.90;;;;;;5065243;28;20075;-80
2024/03/13 02:05:45;;;;;;;69.00;29.05;;;10.90;95.90;;;;;;5052912;28;20094;-81
2024/03/13 02:08:15;;;;;;;67.05;27.13;;;10.90;95.80;;;;;;5051468;28;20060;-80
2024/03/13 02:10:42;;;;;;;63.55;28.02;;;11.00;95.70;;;;;;5063062;28;20400;-81
2024/03/13 02:13:12;;;;;;;81.78;32.63;;;11.00;95.80;;;;;;5063526;28;20484;-81
2024/03/13 02:15:42;;;;;;;60.03;28.45;;;11.00;95.80;;;;;;5057002;28;20045;-81
2024/03/13 02:18:21;;;;;;;53.75;26.15;;;11.00;95.90;;;;;;5070317;28;20086;-80
2024/03/13 02:20:58;;;;;;;59.88;26.80;;;10.90;96.00;;;;;;5068955;28;20403;-81
2024/03/13 02:23:28;;;;;;;65.13;28.73;;;10.90;96.00;;;;;;5072426;28;20086;-81
2024/03/13 02:25:55;;;;;;;60.45;28.20;;;10.90;96.00;;;;;;5057146;28;20028;-81
2024/03/13 02:28:34;;;;;;;65.68;29.58;;;11.00;95.90;;;;;;5062311;28;21117;-81
2024/03/13 02:31:00;;;;;;;58.15;26.95;;;11.00;95.90;;;;;;5067307;28;20047;-81
2024/03/13 02:33:30;;;;;;;59.97;27.23;;;11.00;95.90;;;;;;5072565;28;20032;-81
2024/03/13 02:35:56;;;;;;;55.65;25.10;;;11.00;95.90;;;;;;5056874;28;20028;-81
2024/03/13 02:38:22;;;;;;;56.10;24.73;;;11.00;95.90;;;;;;5067789;28;20435;-81
2024/03/13 02:40:47;;;;;;;54.78;23.35;;;11.10;95.80;;;;;;5070958;28;20032;-82
2024/03/13 02:43:13;;;;;;;71.78;28.75;;;11.20;95.70;;;;;;5065952;28;20032;-81
2024/03/13 02:45:42;;;;;;;58.22;25.08;;;11.20;95.60;;;;;;5070303;28;20032;-82
2024/03/13 02:48:08;;;;;;;60.05;27.88;;;11.20;95.50;;;;;;5069674;28;20041;-81
2024/03/13 02:50:34;;;;;;;57.55;25.27;;;11.20;95.60;;;;;;5057838;28;20490;-82
2024/03/13 02:53:00;;;;;;;67.53;26.50;;;11.20;95.60;;;;;;5069993;28;20384;-81
2024/03/13 02:55:25;;;;;;;57.40;24.92;;;11.20;95.60;;;;;;5067351;28;20058;-81
2024/03/13 02:57:51;;;;;;;58.92;22.10;;;11.20;95.60;;;;;;5068224;28;20039;-80
2024/03/13 03:00:17;;;;;;;59.92;27.90;;;11.20;95.60;;;;;;5060012;28;20065;-81
2024/03/13 03:02:43;;;;;;;63.33;28.55;;;11.30;95.70;;;;;;5051265;28;20464;-81
2024/03/13 03:05:09;;;;;;;59.33;27.33;;;11.30;95.80;;;;;;5065339;28;20082;-81
2024/03/13 03:07:35;;;;;;;62.08;26.13;;;11.20;95.80;;;;;;5057997;28;20447;-81
2024/03/13 03:10:02;;;;;;;60.28;22.55;;;11.10;95.90;;;;;;5062569;28;20025;-79
2024/03/13 03:12:28;;;;;;;67.97;30.70;;;11.10;95.90;;;;;;5058572;28;20554;-81
2024/03/13 03:14:56;;;;;;;62.47;29.13;;;11.20;96.00;;;;;;5053977;28;20112;-81
2024/03/13 03:17:22;;;;;;;57.63;25.98;;;11.10;95.90;;;;;;5056545;28;20392;-81
2024/03/13 03:19:51;;;;;;;60.33;26.27;;;11.10;95.90;;;;;;5069192;28;20110;-81
2024/03/13 03:22:17;;;;;;;55.42;26.02;;;11.10;95.90;;;;;;5065340;28;20182;-81
2024/03/13 03:24:48;;;;;;;65.80;25.92;;;11.10;95.80;;;;;;5057416;28;20025;-81
2024/03/13 03:27:14;;;;;;;68.97;27.55;;;11.20;95.90;;;;;;5059798;28;20468;-81
2024/03/13 03:29:43;;;;;;;67.50;26.20;;;11.20;95.90;;;;;;5062330;28;20043;-83
2024/03/13 03:32:09;;;;;;;61.42;26.55;;;11.20;95.90;;;;;;5050515;28;20091;-83
2024/03/13 03:34:39;;;;;;;61.35;28.33;;;11.20;95.90;;;;;;5048508;28;20044;-81
2024/03/13 03:37:05;;;;;;;59.22;27.35;;;11.20;95.90;;;;;;5051751;28;20072;-81
2024/03/13 03:39:33;;;;;;;70.13;28.20;;;11.20;96.00;;;;;;5053999;28;20052;-80
2024/03/13 03:41:59;;;;;;;66.57;27.10;;;11.10;96.00;;;;;;5056868;28;20323;-81
2024/03/13 03:44:29;;;;;;;61.78;30.15;;;11.20;96.00;;;;;;5074580;28;20087;-81
2024/03/13 03:46:55;;;;;;;68.05;26.70;;;11.20;96.10;;;;;;5078330;28;20591;-80
2024/03/13 03:49:24;;;;;;;58.78;27.65;;;11.20;96.10;;;;;;5069407;28;20024;-81
2024/03/13 03:51:50;;;;;;;61.28;27.77;;;11.10;96.20;;;;;;5062281;28;20031;-81
2024/03/13 03:54:16;;;;;;;64.95;27.60;;;11.10;96.20;;;;;;5061976;28;20029;-81
2024/03/13 03:56:41;;;;;;;63.45;28.13;;;11.10;96.10;;;;;;5054263;28;20481;-81
2024/03/13 03:59:10;;;;;;;65.68;26.15;;;11.20;96.20;;;;;;5070090;28;20032;-80
2024/03/13 04:01:38;;;;;;;68.70;27.45;;;11.10;96.20;;;;;;5052068;28;20505;-81
2024/03/13 04:04:04;;;;;;;62.95;26.27;;;11.20;96.20;;;;;;5064457;28;20070;-81
2024/03/13 04:06:30;;;;;;;51.35;22.13;;;11.10;96.10;;;;;;5057757;28;20025;-81
2024/03/13 04:08:56;;;;;;;58.15;24.58;;;11.20;96.10;;;;;;5054799;28;20029;-80
2024/03/13 04:11:23;;;;;;;56.80;25.52;;;11.20;96.10;;;;;;5067971;28;20055;-81
2024/03/13 04:13:49;;;;;;;63.95;26.30;;;11.30;96.00;;;;;;5054725;28;20124;-81
2024/03/13 04:16:16;;;;;;;54.38;24.77;;;11.30;95.90;;;;;;5049983;28;20532;-80
2024/03/13 04:18:45;;;;;;;60.90;26.33;;;11.30;95.90;;;;;;5050666;28;20035;-80
2024/03/13 04:21:14;;;;;;;56.72;26.02;;;11.30;95.90;;;;;;5060702;28;20034;-81
2024/03/13 04:23:46;;;;;;;62.40;25.90;;;11.30;96.00;;;;;;5055015;28;20033;-81
2024/03/13 04:26:15;;;;;;;58.55;24.70;;;11.30;96.10;;;;;;5055433;28;20054;-81
2024/03/13 04:28:43;;;;;;;57.45;26.08;;;11.20;96.10;;;;;;5056360;28;20057;-80
2024/03/13 04:31:10;;;;;;;62.17;26.45;;;11.20;96.20;;;;;;5059225;28;20037;-81
2024/03/13 04:33:36;;;;;;;67.07;27.88;;;11.20;96.20;;;;;;5056120;28;20036;-81
2024/03/13 04:36:03;;;;;;;45.97;21.98;;;11.10;96.40;;;;;;5055854;28;20036;-81
2024/03/13 04:38:29;;;;;;;63.30;24.52;;;11.10;96.30;;;;;;5055716;28;20033;-81
2024/03/13 04:40:54;;;;;;;52.22;21.10;;;11.20;96.30;;;;;;5055181;28;20099;-81
2024/03/13 04:43:20;;;;;;;51.05;22.85;;;11.20;96.20;;;;;;5062361;28;20033;-81
2024/03/13 04:45:46;;;;;;;46.22;19.55;;;11.20;96.50;;;;;;5058747;28;20123;-81
2024/03/13 04:48:13;;;;;;;57.33;23.25;;;11.20;96.20;;;;;;5067277;28;20034;-80
2024/03/13 04:50:39;;;;;;;57.30;25.58;;;11.30;96.20;;;;;;5055582;28;20576;-81
2024/03/13 04:53:04;;;;;;;61.80;25.10;;;11.30;96.30;;;;;;5067647;28;20127;-81
2024/03/13 04:55:30;;;;;;;64.43;26.67;;;11.20;96.40;;;;;;5064526;28;20040;-81
2024/03/13 04:57:56;;;;;;;52.35;20.42;;;11.20;96.40;;;;;;5056819;28;20529;-81
2024/03/13 05:00:23;;;;;;;55.10;21.98;;;11.20;96.40;;;;;;5053120;28;20024;-80
2024/03/13 05:02:48;;;;;;;51.15;21.60;;;11.30;96.30;;;;;;5057742;28;20047;-80
2024/03/13 05:05:14;;;;;;;51.38;20.90;;;11.30;96.20;;;;;;5055876;28;20461;-81
2024/03/13 05:07:44;;;;;;;54.17;22.40;;;11.30;96.10;;;;;;5066743;28;20029;-81
2024/03/13 05:10:11;;;;;;;51.72;23.52;;;11.40;96.00;;;;;;5064196;28;20476;-81
2024/03/13 05:12:37;;;;;;;46.38;21.80;;;11.50;96.00;;;;;;5060262;28;20037;-81
2024/03/13 05:15:04;;;;;;;57.58;21.90;;;11.40;96.00;;;;;;5063283;28;20048;-81
2024/03/13 05:17:30;;;;;;;55.30;23.73;;;11.40;96.00;;;;;;5061498;28;20117;-80
2024/03/13 05:19:56;;;;;;;44.65;17.05;;;11.40;96.10;;;;;;5057879;28;20451;-81
2024/03/13 05:22:22;;;;;;;56.35;23.38;;;11.40;96.10;;;;;;5058713;28;20032;-81
2024/03/13 05:24:49;;;;;;;54.45;22.73;;;11.50;96.10;;;;;;5051471;28;20538;-81
2024/03/13 05:27:15;;;;;;;43.85;20.05;;;11.50;96.10;;;;;;5052820;28;20024;-81
2024/03/13 05:29:41;;;;;;;54.90;22.17;;;11.50;95.90;;;;;;5060676;28;20072;-81
2024/03/13 05:32:07;;;;;;;55.15;22.65;;;11.60;95.90;;;;;;5059279;28;20071;-81
2024/03/13 05:34:33;;;;;;;51.65;20.67;;;11.60;95.90;;;;;;5061251;28;20033;-81
2024/03/13 05:37:00;;;;;;;46.05;19.33;;;11.70;95.80;;;;;;5050284;28;20507;-80
2024/03/13 05:39:26;;;;;;;42.70;17.15;;;11.70;95.80;;;;;;5069446;28;20028;-80
2024/03/13 05:41:51;;;;;;;50.42;21.60;;;11.60;95.70;;;;;;5063009;28;20119;-81
2024/03/13 05:44:17;;;;;;;57.78;22.35;;;11.70;95.60;;;;;;5051859;28;20366;-80
2024/03/13 05:46:43;;;;;;;56.65;22.67;;;11.70;95.60;;;;;;5064463;28;20821;-81
2024/03/13 05:49:16;;;;;;;42.70;18.58;;;11.70;95.60;;;;;;5064793;28;20134;-80
2024/03/13 05:51:42;;;;;;;46.55;18.60;;;11.70;95.40;;;;;;5067592;28;20032;-79
2024/03/13 05:54:08;;;;;;;45.72;19.48;;;11.70;95.40;;;;;;5056090;28;20040;-79
2024/03/13 05:56:33;;;;;;;48.88;21.10;;;11.70;95.50;;;;;;5054240;28;20086;-80
2024/03/13 05:58:59;;;;;;;48.53;21.85;;;11.70;95.60;;;;;;5057957;28;20024;-79
2024/03/13 06:01:28;;;;;;;51.97;19.60;;;11.60;95.60;;;;;;5070612;28;20035;-79
2024/03/13 06:03:53;;;;;;;51.33;21.25;;;11.60;95.60;;;;;;5054278;28;20743;-78
2024/03/13 06:06:23;;;;;;;40.13;16.20;;;11.60;95.60;;;;;;5064799;28;20032;-78
2024/03/13 06:08:49;;;;;;;52.67;19.88;;;11.70;95.60;;;;;;5069460;28;20028;-80
2024/03/13 06:11:18;;;;;;;47.70;19.85;;;11.70;95.50;;;;;;5065628;28;20047;-80
2024/03/13 06:13:47;;;;;;;50.55;22.13;;;11.70;95.50;;;;;;5064783;28;20475;-79
2024/03/13 06:16:15;;;;;;;46.05;21.15;;;11.70;95.50;;;;;;5070325;28;20036;-80
2024/03/13 06:18:47;;;;;;;47.42;23.08;;;11.70;95.50;;;;;;5067591;28;20037;-79
2024/03/13 06:21:12;;;;;;;37.97;16.20;;;11.80;95.50;;;;;;5068904;28;20028;-79
2024/03/13 06:23:47;;;;;;;42.97;18.27;;;11.80;95.50;;;;;;5071153;28;20353;-80
2024/03/13 06:26:17;;;;;;;47.20;19.52;;;11.80;95.40;;;;;;5057696;28;20029;-80
2024/03/13 06:31:37;;;;;;;50.85;20.38;;;11.80;95.40;;;;;;5055185;28;20036;-81
2024/03/13 06:34:02;;;;;;;56.55;23.17;;;11.80;95.40;;;;;;5069499;28;20036;-81
2024/03/13 06:36:28;;;;;;;48.55;19.65;;;11.80;95.50;;;;;;5061920;28;20040;-76
2024/03/13 06:38:54;;;;;;;47.17;19.20;;;11.90;95.50;;;;;;5060701;28;20055;-80
2024/03/13 06:41:19;;;;;;;54.45;22.05;;;11.90;95.50;;;;;;5058841;28;20077;-81
2024/03/13 06:43:45;;;;;;;60.42;22.85;;;11.90;95.50;;;;;;5060481;28;20029;-79
2024/03/13 06:46:11;;;;;;;50.45;20.73;;;11.90;95.50;;;;;;5050843;28;20032;-79
2024/03/13 06:48:36;;;;;;;75.03;23.08;;;11.90;95.50;;;;;;5051166;28;20036;-78
2024/03/13 06:51:08;;;;;;;60.80;24.38;;;11.90;95.60;;;;;;5051553;28;20045;-80
2024/03/13 06:53:34;;;;;;;50.40;20.90;;;11.90;95.60;;;;;;5060077;28;20052;-80
2024/03/13 06:56:00;;;;;;;59.10;19.80;;;12.00;95.50;;;;;;5055332;28;20049;-79
2024/03/13 06:58:27;;;;;;;53.72;22.25;;;12.00;95.60;;;;;;5062177;28;20020;-78
2024/03/13 07:00:53;;;;;;;52.05;21.45;;;12.00;95.50;;;;;;5055064;28;20422;-79
2024/03/13 07:03:18;;;;;;;57.88;21.17;;;12.00;95.50;;;;;;5054691;28;20033;-79
2024/03/13 07:05:44;;;;;;;48.35;19.83;;;12.00;95.60;;;;;;5059270;28;20041;-80
2024/03/13 07:08:12;;;;;;;56.15;23.83;;;12.00;95.60;;;;;;5054413;28;20025;-78
2024/03/13 07:10:38;;;;;;;67.30;22.17;;;12.00;95.60;;;;;;5053888;28;20089;-79
2024/03/13 07:13:06;;;;;;;55.25;24.10;;;12.00;95.70;;;;;;5063265;28;20033;-79
2024/03/13 07:15:34;;;;;;;51.75;18.75;;;12.00;95.60;;;;;;5060865;28;20036;-79
2024/03/13 07:18:00;;;;;;;46.78;18.60;;;12.10;95.60;;;;;;5056233;28;20104;-85
2024/03/13 07:20:26;;;;;;;55.88;21.60;;;12.10;95.60;;;;;;5062545;28;20028;-82
2024/03/13 07:22:51;;;;;;;51.42;18.40;;;12.10;95.50;;;;;;5049699;28;20082;-79
2024/03/13 07:25:17;;;;;;;47.65;16.58;;;12.10;95.60;;;;;;5051517;28;20080;-79
2024/03/13 07:27:43;;;;;;;45.75;16.83;;;12.10;95.50;;;;;;5067408;28;20032;-80
2024/03/13 07:30:09;;;;;;;48.80;19.77;;;12.10;95.80;;;;;;5062950;28;20032;-79
2024/03/13 07:32:35;;;;;;;61.22;20.00;;;12.10;95.50;;;;;;5061428;28;20071;-78
2024/03/13 07:35:01;;;;;;;41.60;15.90;;;12.20;95.50;;;;;;5061865;28;20063;-79
2024/03/13 07:37:27;;;;;;;54.20;21.45;;;12.10;95.50;;;;;;5070138;28;20040;-76
2024/03/13 07:39:53;;;;;;;47.17;18.73;;;12.20;95.50;;;;;;5055238;28;20032;-79
2024/03/13 07:42:19;;;;;;;46.05;18.10;;;12.20;95.50;;;;;;5055118;28;20497;-80
2024/03/13 07:44:45;;;;;;;31.52;12.45;;;12.20;95.50;;;;;;5063280;28;20032;-80
2024/03/13 07:47:11;;;;;;;47.88;17.65;;;12.20;95.90;;;;;;5068174;28;20428;-80
2024/03/13 07:49:37;;;;;;;52.17;18.90;;;12.20;95.60;;;;;;5066522;28;20123;-81
2024/03/13 07:52:04;;;;;;;46.33;17.67;;;12.20;95.70;;;;;;5063087;28;20111;-79
2024/03/13 07:54:30;;;;;;;62.35;21.40;;;12.20;95.70;;;;;;5063642;28;20399;-80
2024/03/13 07:56:55;;;;;;;49.92;17.52;;;12.20;95.70;;;;;;5057631;28;20037;-79
2024/03/13 07:59:25;;;;;;;47.45;18.55;;;12.20;95.80;;;;;;5070100;28;20034;-79
2024/03/13 08:01:54;;;;;;;38.38;16.40;;;12.20;95.80;;;;;;5057517;28;20409;-79
2024/03/13 08:04:21;;;;;;;58.78;19.13;;;12.30;95.90;;;;;;5059977;28;20425;-79
2024/03/13 08:06:47;;;;;;;38.05;10.52;;;12.30;95.90;;;;;;5062339;28;20112;-79
2024/03/13 08:09:12;;;;;;;31.58;9.93;;;12.20;95.90;;;;;;5049651;28;20131;-79
2024/03/13 08:11:38;;;;;;;44.90;17.30;;;12.30;96.00;;;;;;5063872;28;21207;-79
2024/03/13 08:14:06;;;;;;;45.55;15.20;;;12.20;96.10;;;;;;5061479;28;20025;-79
2024/03/13 08:16:32;;;;;;;34.50;11.02;;;12.20;96.20;;;;;;5060613;28;20094;-81
2024/03/13 08:18:58;;;;;;;43.50;14.98;;;12.20;96.30;;;;;;5068504;28;20098;-78
2024/03/13 08:21:26;;;;;;;37.40;13.57;;;12.20;96.40;;;;;;5068232;28;20032;-79
2024/03/13 08:23:52;;;;;;;28.02;10.00;;;12.10;96.60;;;;;;5065703;28;20057;-79
2024/03/13 08:26:18;;;;;;;44.13;15.60;;;12.10;96.80;;;;;;5056897;28;20036;-79
2024/03/13 08:28:43;;;;;;;39.58;15.05;;;12.00;97.00;;;;;;5066775;28;20053;-79
2024/03/13 08:31:12;;;;;;;38.20;13.75;;;12.00;97.00;;;;;;5057734;28;20028;-79
2024/03/13 08:33:38;;;;;;;48.70;15.55;;;12.10;97.10;;;;;;5067200;28;20029;-79
2024/03/13 08:36:04;;;;;;;43.20;15.90;;;12.00;97.10;;;;;;5068956;28;20040;-79
2024/03/13 08:38:32;;;;;;;28.27;10.90;;;12.10;97.20;;;;;;5064659;28;20032;-79
2024/03/13 08:40:58;;;;;;;35.92;10.48;;;12.10;97.20;;;;;;5059243;28;20044;-81
2024/03/13 08:43:26;;;;;;;29.02;10.73;;;12.10;97.30;;;;;;5063603;28;20031;-78
2024/03/13 08:45:52;;;;;;;16.38;6.43;;;12.10;97.40;;;;;;5061594;28;20043;-79
2024/03/13 08:48:18;;;;;;;55.85;14.30;;;12.10;97.50;;;;;;5064987;28;20048;-78
2024/03/13 08:50:44;;;;;;;22.85;7.60;;;12.10;97.60;;;;;;5068096;28;20037;-78
2024/03/13 08:53:14;;;;;;;29.02;12.25;;;12.10;98.00;;;;;;5067823;28;20033;-80
2024/03/13 08:55:40;;;;;;;20.27;7.90;;;12.10;97.80;;;;;;5054970;28;20093;-79
2024/03/13 08:58:06;;;;;;;29.20;10.55;;;12.10;97.90;;;;;;5067976;28;20501;-81
2024/03/13 09:00:32;;;;;;;36.55;12.35;;;12.10;97.90;;;;;;5050724;28;20155;-82
2024/03/13 09:02:59;;;;;;;34.08;14.05;;;12.10;97.90;;;;;;5049876;28;20436;-80
2024/03/13 09:05:33;;;;;;;25.35;9.82;;;12.20;98.00;;;;;;5050288;28;20116;-81
2024/03/13 09:07:59;;;;;;;26.83;10.70;;;12.20;98.00;;;;;;5049722;28;20040;-83
2024/03/13 09:10:25;;;;;;;28.85;10.43;;;12.20;97.90;;;;;;5062272;28;20040;-82
2024/03/13 09:12:51;;;;;;;24.42;10.43;;;12.30;98.00;;;;;;5067275;28;20021;-80
2024/03/13 09:15:17;;;;;;;29.02;11.50;;;12.40;97.90;;;;;;5055981;28;20037;-80
2024/03/13 09:17:42;;;;;;;24.73;10.50;;;12.40;97.90;;;;;;5064575;28;20039;-79
2024/03/13 09:20:13;;;;;;;25.17;12.18;;;12.40;97.90;;;;;;5055967;28;20052;-79
2024/03/13 09:22:39;;;;;;;30.10;12.10;;;12.40;98.10;;;;;;5058686;28;20190;-79
2024/03/13 09:25:06;;;;;;;26.77;11.52;;;12.40;97.90;;;;;;5052048;28;20123;-79
2024/03/13 09:27:31;;;;;;;23.30;10.82;;;12.50;97.90;;;;;;5066055;28;20032;-79
2024/03/13 09:29:57;;;;;;;27.10;11.75;;;12.50;98.00;;;;;;5062279;28;20056;-79
2024/03/13 09:32:22;;;;;;;27.90;13.10;;;12.50;98.00;;;;;;5066708;28;20426;-79
2024/03/13 09:34:50;;;;;;;3.40;2.67;;;12.50;98.10;;;;;;5067482;28;20036;-78
2024/03/13 09:37:17;;;;;;;20.70;9.88;;;12.50;98.30;;;;;;5052478;28;20041;-79
2024/03/13 09:39:43;;;;;;;13.43;5.78;;;12.50;98.50;;;;;;5058776;28;20028;-79
2024/03/13 09:42:22;;;;;;;11.75;4.20;;;12.40;98.70;;;;;;5056108;28;20033;-79
2024/03/13 09:44:49;;;;;;;20.02;5.63;;;12.50;98.90;;;;;;5048735;28;20036;-79
2024/03/13 09:47:15;;;;;;;11.57;6.40;;;12.40;99.00;;;;;;5068007;28;20051;-79
2024/03/13 09:49:44;;;;;;;11.60;5.43;;;12.40;99.20;;;;;;5066430;28;20400;-81
2024/03/13 09:52:15;;;;;;;12.85;6.10;;;12.40;99.30;;;;;;5063982;28;20041;-78
2024/03/13 09:54:45;;;;;;;12.45;5.75;;;12.40;99.40;;;;;;5057363;28;20086;-78
2024/03/13 09:57:11;;;;;;;15.07;7.43;;;12.40;99.50;;;;;;5050841;28;20037;-82
2024/03/13 09:59:38;;;;;;;9.80;5.90;;;12.50;99.60;;;;;;5047426;28;20025;-79
2024/03/13 10:02:11;;;;;;;7.60;3.72;;;12.50;99.70;;;;;;5061101;28;20449;-84
2024/03/13 10:04:38;;;;;;;10.10;4.63;;;12.50;99.90;;;;;;5048838;28;20052;-83
2024/03/13 10:07:04;;;;;;;8.48;4.53;;;12.50;99.90;;;;;;5065979;28;20346;-83
2024/03/13 10:09:35;;;;;;;14.77;6.20;;;12.50;99.90;;;;;;5057850;28;20037;-82
2024/03/13 10:12:10;;;;;;;9.32;4.82;;;12.50;99.90;;;;;;5066602;28;20043;-82
2024/03/13 10:14:37;;;;;;;6.00;3.63;;;12.50;99.90;;;;;;5058007;28;20182;-82
2024/03/13 10:17:05;;;;;;;11.68;5.40;;;12.60;99.90;;;;;;5055209;28;20086;-81
2024/03/13 10:19:38;;;;;;;13.05;4.78;;;12.60;99.90;;;;;;5070200;28;20032;-82
2024/03/13 10:22:05;;;;;;;5.82;2.90;;;12.70;99.90;;;;;;5066273;28;20120;-83
2024/03/13 10:24:33;;;;;;;7.97;5.07;;;12.70;99.90;;;;;;5055678;28;20089;-82
2024/03/13 10:27:02;;;;;;;8.75;3.83;;;12.70;99.90;;;;;;5066381;28;20039;-82
2024/03/13 10:29:28;;;;;;;11.05;3.33;;;12.70;99.90;;;;;;5054902;28;20596;-82
2024/03/13 10:31:54;;;;;;;7.50;4.50;;;12.80;99.90;;;;;;5063993;28;20044;-81
2024/03/13 10:34:21;;;;;;;11.52;4.90;;;12.80;99.90;;;;;;5071016;28;20029;-81
2024/03/13 10:36:47;;;;;;;11.48;5.13;;;12.80;99.90;;;;;;5058662;28;20101;-81
2024/03/13 10:39:19;;;;;;;9.23;5.28;;;12.90;99.90;;;;;;5064472;28;20029;-82
2024/03/13 10:41:46;;;;;;;7.70;4.68;;;13.00;99.90;;;;;;5056810;28;20648;-81
2024/03/13 10:44:12;;;;;;;6.93;3.33;;;12.90;99.90;;;;;;5061313;28;20086;-82
2024/03/13 10:46:38;;;;;;;10.88;5.70;;;13.00;99.90;;;;;;5056394;28;20033;-82
2024/03/13 10:49:06;;;;;;;9.05;5.05;;;13.00;99.90;;;;;;5062341;28;20396;-82
2024/03/13 10:51:31;;;;;;;5.57;2.78;;;13.00;99.90;;;;;;5068759;28;20065;-82
2024/03/13 10:54:01;;;;;;;8.07;3.72;;;13.00;99.90;;;;;;5070015;28;20103;-77
2024/03/13 10:56:27;;;;;;;15.90;7.45;;;13.10;99.90;;;;;;5068652;28;20059;-80
2024/03/13 10:58:55;;;;;;;7.68;4.40;;;13.10;99.90;;;;;;5052539;28;20552;-79
2024/03/13 11:01:21;;;;;;;13.15;7.20;;;13.10;99.90;;;;;;5050337;28;20362;-79
2024/03/13 11:03:59;;;;;;;21.40;8.30;;;13.20;99.90;;;;;;5050337;28;20384;-80
2024/03/13 11:06:26;;;;;;;15.60;7.90;;;13.20;99.90;;;;;;5067504;28;20044;-79
2024/03/13 11:08:54;;;;;;;11.13;5.45;;;13.30;99.90;;;;;;5070499;28;20032;-77
2024/03/13 11:11:23;;;;;;;8.10;4.95;;;13.40;99.90;;;;;;5063698;28;20036;-82
2024/03/13 11:13:54;;;;;;;8.48;4.20;;;13.40;99.90;;;;;;5060817;28;21117;-81
2024/03/13 11:16:23;;;;;;;13.75;4.80;;;13.50;99.90;;;;;;5057869;28;20040;-81
2024/03/13 11:18:51;;;;;;;10.55;5.93;;;13.40;99.90;;;;;;5056125;28;20048;-81
2024/03/13 11:21:46;;;;;;;12.40;6.78;;;13.50;99.90;;;;;;5056508;28;20033;-81
2024/03/13 11:24:23;;;;;;;10.05;4.97;;;13.50;99.90;;;;;;5063634;28;20104;-81
2024/03/13 11:26:55;;;;;;;13.07;6.00;;;13.50;99.90;;;;;;5066504;28;20116;-81
2024/03/13 11:29:33;;;;;;;8.80;4.72;;;13.50;99.90;;;;;;5055223;28;20416;-81
2024/03/13 11:31:59;;;;;;;14.40;7.60;;;13.60;99.90;;;;;;5057046;28;20029;-80
2024/03/13 11:34:26;;;;;;;12.52;4.72;;;13.60;99.90;;;;;;5067233;28;20048;-81
2024/03/13 11:36:52;;;;;;;13.05;5.00;;;13.60;99.90;;;;;;5050541;28;20041;-82
2024/03/13 11:39:20;;;;;;;6.05;3.10;;;13.70;99.90;;;;;;5053283;28;20036;-81
2024/03/13 11:41:45;;;;;;;8.23;3.83;;;13.70;99.90;;;;;;5061554;28;20025;-82
2024/03/13 11:44:16;;;;;;;15.85;7.07;;;13.70;99.90;;;;;;5049445;28;20025;-84
2024/03/13 11:46:48;;;;;;;9.18;5.20;;;13.60;99.90;;;;;;5048572;28;20021;-81
2024/03/13 11:49:14;;;;;;;8.68;5.10;;;13.60;99.90;;;;;;5060559;28;20380;-86
2024/03/13 11:52:02;;;;;;;13.80;5.65;;;13.60;99.90;;;;;;5057977;28;20548;-84
2024/03/13 11:54:35;;;;;;;15.00;8.35;;;13.60;99.90;;;;;;5056186;28;20073;-82
2024/03/13 11:57:04;;;;;;;6.75;4.00;;;13.70;99.90;;;;;;5055511;28;20051;-83
2024/03/13 11:59:39;;;;;;;18.13;6.82;;;13.70;99.90;;;;;;5063258;28;20025;-82
2024/03/13 12:02:27;;;;;;;7.10;3.22;;;13.70;99.90;;;;;;5062310;28;20115;-83
2024/03/13 12:05:04;;;;;;;21.63;5.47;;;13.70;99.90;;;;;;5062021;28;20613;-83
2024/03/13 12:07:42;;;;;;;11.98;6.57;;;13.80;99.90;;;;;;5063142;28;20029;-84
2024/03/13 12:10:27;;;;;;;18.83;6.75;;;13.80;99.90;;;;;;5050842;28;20028;-84
2024/03/13 12:12:53;;;;;;;17.65;6.32;;;13.80;99.90;;;;;;5058368;28;20106;-81
2024/03/13 12:15:20;;;;;;;12.27;6.10;;;13.70;99.90;;;;;;5049088;28;20044;-80
2024/03/13 12:17:55;;;;;;;11.23;5.07;;;13.70;99.90;;;;;;5050348;28;20025;-79
2024/03/13 12:20:34;;;;;;;10.02;5.22;;;13.70;99.90;;;;;;5060354;28;20039;-79
2024/03/13 12:23:02;;;;;;;8.38;4.07;;;13.70;99.90;;;;;;5062090;28;20024;-79
2024/03/13 12:25:29;;;;;;;2.72;2.10;;;13.70;99.90;;;;;;5063096;28;20033;-80
2024/03/13 12:27:56;;;;;;;12.75;3.42;;;13.80;99.90;;;;;;5049531;28;20082;-79
2024/03/13 12:30:24;;;;;;;8.98;4.68;;;13.80;99.90;;;;;;5056287;28;20064;-80
2024/03/13 12:32:54;;;;;;;12.50;5.03;;;13.80;99.90;;;;;;5053429;28;20033;-79
2024/03/13 12:35:19;;;;;;;12.45;4.75;;;13.80;99.90;;;;;;5058940;28;20033;-79
2024/03/13 12:37:49;;;;;;;8.05;2.55;;;13.80;99.90;;;;;;5062072;28;20075;-80
2024/03/13 12:40:16;;;;;;;19.27;4.15;;;13.90;99.90;;;;;;5059720;28;20039;-80
2024/03/13 12:42:45;;;;;;;18.65;6.13;;;13.80;99.90;;;;;;5048599;28;20536;-81
2024/03/13 12:45:11;;;;;;;13.32;5.05;;;13.80;99.90;;;;;;5053497;28;20031;-79
2024/03/13 12:47:41;;;;;;;18.67;4.60;;;13.90;99.90;;;;;;5056843;28;20040;-79
2024/03/13 12:50:11;;;;;;;15.48;4.38;;;13.90;99.90;;;;;;5059794;28;20368;-80
2024/03/13 12:52:40;;;;;;;14.25;5.47;;;13.90;99.90;;;;;;5048770;28;20396;-80
2024/03/13 12:55:07;;;;;;;3.97;2.85;;;13.90;99.90;;;;;;5060471;28;20476;-78
2024/03/13 12:57:36;;;;;;;12.88;4.93;;;13.90;99.90;;;;;;5065527;28;20162;-78